Fort Wainwright

About
Name: Fort Wainwright
Identifier:  FBK/PAFB
Local Time:  20. Aug 06:31 AKDT
Location
Flights per Day
0 flights
Distance: 268km (166mi)
Punctuality
0% (0 flights per day delayed)
Delay Average: 85 minutes
Current Weather
 3 C (Humidity: 93%)
  0kt (0km/h / 0mph) from 0°
  12km (8 mi.)
 
 METAR PAFB 201358Z AUTO 00000KT 8SM CLR 03/02 A2988 RMK AO2 SLP123 T00290019

Current Flights

Departures
Number Departure To Airline
Arrivals
Number Arrival From Airline

Current Delays

Departures
N/A
Arrivals
N/A

Destinations

Top Destinations
Airport Flights
per week
Seats
per week
  Redmond (RDM) 2 352 0 50
  Billings (BIL) 1 313 0 44
  Seattle (BFI) 1 274 0 39
  Chalkyitsik (CIK) 0 25 0 3
  Missoula (MSO) 0 78 0 11
  Venetie (VEE) 0 17 0 2
  Fort Yukon (FYU) 0 8 0 1
  Anchorage (ANC) 0 39 0 5
  Redding (RDD) 0 39 0 5

Airlines & Planes

Top Airlines
Airline Flights
per Day
Seats
per Day
  Xtra Airways 0 156
  Era Alaska 0 8
Ryan Air 0 -
Top Plane Types
Model Flights Seats
Boeing B737-400 0.9/day 156/day 156.8
Bombardier Dash 8-100 0.2/day 8/day 8.633333333333333
Construcciones C-212-CC 0.0/day - 0